createdAt,value
2023-01-21T00:00:44.112Z,98074.82
2023-01-21T00:03:28.554Z,98072.79
2023-01-21T00:06:01.625Z,98062.17
2023-01-21T00:08:34.581Z,98063.83
2023-01-21T00:11:14.849Z,98060.80
2023-01-21T00:13:49.928Z,98055.59
2023-01-21T00:16:24.936Z,98056.86
2023-01-21T00:19:01.219Z,98060.81
2023-01-21T00:21:34.616Z,98059.41
2023-01-21T00:24:07.526Z,98057.92
2023-01-21T00:26:44.899Z,98060.49
2023-01-21T00:29:22.828Z,98058.25
2023-01-21T00:32:02.741Z,98060.09
2023-01-21T00:34:35.576Z,98065.60
2023-01-21T00:37:08.116Z,98066.20
2023-01-21T00:39:43.154Z,98062.52
2023-01-21T00:42:15.785Z,98062.76
2023-01-21T00:44:52.178Z,98059.05
2023-01-21T00:47:24.634Z,98056.02
2023-01-21T00:49:56.992Z,98057.74
2023-01-21T00:52:29.430Z,98061.23
2023-01-21T00:55:02.015Z,98058.73
2023-01-21T00:57:34.704Z,98062.52
2023-01-21T01:00:11.176Z,98067.56
2023-01-21T01:02:47.370Z,98067.66
2023-01-21T01:05:22.384Z,98068.80
2023-01-21T01:07:54.791Z,98069.61
2023-01-21T01:10:27.279Z,98072.21
2023-01-21T01:13:00.893Z,98074.81
2023-01-21T01:15:33.298Z,98075.58
2023-01-21T01:18:05.742Z,98076.61
2023-01-21T01:20:38.135Z,98080.67
2023-01-21T01:23:10.660Z,98078.88
2023-01-21T01:25:43.158Z,98078.02
2023-01-21T01:28:15.519Z,98075.95
2023-01-21T01:30:47.992Z,98076.52
2023-01-21T01:33:20.485Z,98075.25
2023-01-21T01:35:56.206Z,98075.69
2023-01-21T01:38:28.657Z,98077.73
2023-01-21T01:41:01.075Z,98074.96
2023-01-21T01:43:54.875Z,98077.17
2023-01-21T01:46:32.211Z,98078.17
2023-01-21T01:49:14.670Z,98080.80
2023-01-21T01:51:53.693Z,98077.00
2023-01-21T01:54:30.319Z,98074.02
2023-01-21T01:57:07.138Z,98073.14
2023-01-21T01:59:40.648Z,98070.23
2023-01-21T02:02:18.533Z,98061.79
2023-01-21T02:04:56.607Z,98061.15
2023-01-21T02:07:39.333Z,98060.85
2023-01-21T02:10:14.522Z,98060.95
2023-01-21T02:12:52.844Z,98057.80
2023-01-21T02:15:33.737Z,98055.47
2023-01-21T02:18:22.105Z,98057.17
2023-01-21T02:21:26.552Z,98052.25
2023-01-21T02:24:20.589Z,98051.20
2023-01-21T02:27:29.954Z,98050.40
2023-01-21T02:30:37.544Z,98050.84
2023-01-21T02:33:42.154Z,98048.56
2023-01-21T02:36:36.533Z,98040.86
2023-01-21T02:39:21.823Z,98034.77
2023-01-21T02:42:05.936Z,98033.35
2023-01-21T02:44:42.720Z,98035.56
2023-01-21T02:47:21.294Z,98038.40
2023-01-21T02:49:57.785Z,98038.69
2023-01-21T02:52:33.674Z,98036.63
2023-01-21T02:55:09.324Z,98037.33
2023-01-21T02:57:50.838Z,98035.47
2023-01-21T03:00:30.307Z,98034.80
2023-01-21T03:03:35.467Z,98035.02
2023-01-21T03:06:42.683Z,98030.61
2023-01-21T03:09:25.162Z,98034.05
2023-01-21T03:12:33.887Z,98035.81
2023-01-21T03:15:31.537Z,98033.58
2023-01-21T03:18:20.757Z,98032.27
2023-01-21T03:20:58.776Z,98030.38
2023-01-21T03:23:40.202Z,98027.44
2023-01-21T03:26:16.365Z,98024.09
2023-01-21T03:28:54.098Z,98021.33
2023-01-21T03:31:30.221Z,98019.89
2023-01-21T03:34:08.046Z,98019.94
2023-01-21T03:36:48.913Z,98017.94
2023-01-21T03:39:31.640Z,98013.70
2023-01-21T03:42:04.973Z,98016.85
2023-01-21T03:44:37.994Z,98013.52
2023-01-21T03:47:17.780Z,98017.31
2023-01-21T03:49:55.530Z,98024.19
2023-01-21T03:52:29.702Z,98029.67
2023-01-21T03:55:02.077Z,98024.58
2023-01-21T03:57:34.484Z,98030.80
2023-01-21T04:00:09.263Z,98031.49
2023-01-21T04:02:44.192Z,98029.30
2023-01-21T04:05:16.910Z,98026.17
2023-01-21T04:07:49.379Z,98019.17
2023-01-21T04:10:21.867Z,98023.20
2023-01-21T04:12:54.285Z,98025.92
2023-01-21T04:15:26.806Z,98027.08
2023-01-21T04:17:59.228Z,98030.41
2023-01-21T04:20:33.580Z,98027.66
2023-01-21T04:23:06.323Z,98031.70
2023-01-21T04:25:38.900Z,98030.05
2023-01-21T04:28:11.300Z,98025.66
2023-01-21T04:30:43.742Z,98025.98
2023-01-21T04:33:16.831Z,98025.35
2023-01-21T04:35:49.139Z,98023.79
2023-01-21T04:38:21.854Z,98022.98
2023-01-21T04:40:57.076Z,98024.44
2023-01-21T04:43:29.880Z,98027.23
2023-01-21T04:46:02.810Z,98026.44
2023-01-21T04:48:35.651Z,98031.38
2023-01-21T04:51:08.630Z,98030.73
2023-01-21T04:53:41.628Z,98034.24
2023-01-21T04:56:14.234Z,98036.99
2023-01-21T04:58:46.899Z,98034.81
2023-01-21T05:01:20.179Z,98029.95
2023-01-21T05:03:52.605Z,98028.78
2023-01-21T05:06:24.974Z,98033.19
2023-01-21T05:08:57.424Z,98037.42
2023-01-21T05:11:32.591Z,98029.52
2023-01-21T05:14:04.899Z,98034.96
2023-01-21T05:16:37.709Z,98034.90
2023-01-21T05:19:10.254Z,98034.56
2023-01-21T05:21:43.032Z,98035.25
2023-01-21T05:24:15.529Z,98033.33
2023-01-21T05:26:49.805Z,98031.02
2023-01-21T05:29:23.552Z,98027.15
2023-01-21T05:31:58.814Z,98026.20
2023-01-21T05:34:31.036Z,98022.66
2023-01-21T05:37:03.435Z,98019.83
2023-01-21T05:39:35.881Z,98019.58
2023-01-21T05:42:10.558Z,98015.60
2023-01-21T05:44:42.955Z,98020.88
2023-01-21T05:47:15.460Z,98018.20
2023-01-21T05:49:47.790Z,98016.30
2023-01-21T05:52:22.973Z,98021.60
2023-01-21T05:55:01.817Z,98022.14
2023-01-21T05:57:35.609Z,98024.41
2023-01-21T06:00:09.959Z,98023.33
2023-01-21T06:02:42.416Z,98021.10
2023-01-21T06:05:16.165Z,98016.73
2023-01-21T06:07:48.520Z,98014.17
2023-01-21T06:10:21.815Z,98016.15
2023-01-21T06:12:54.737Z,98009.65
2023-01-21T06:15:29.675Z,98012.73
2023-01-21T06:18:02.466Z,98018.20
2023-01-21T06:20:34.971Z,98013.94
2023-01-21T06:23:07.406Z,98015.17
2023-01-21T06:25:40.863Z,98015.96
2023-01-21T06:28:14.120Z,98017.84
2023-01-21T06:30:46.939Z,98021.66
2023-01-21T06:33:19.395Z,98020.91
2023-01-21T06:35:52.271Z,98025.59
2023-01-21T06:38:24.571Z,98023.63
2023-01-21T06:40:56.977Z,98024.36
2023-01-21T06:43:32.055Z,98020.94
2023-01-21T06:46:04.474Z,98021.59
2023-01-21T06:48:36.838Z,98023.73
2023-01-21T06:51:09.355Z,98019.44
2023-01-21T06:53:41.770Z,98026.65
2023-01-21T06:56:14.049Z,98032.33
2023-01-21T06:58:46.545Z,98034.98
2023-01-21T07:01:19.984Z,98036.61
2023-01-21T07:03:52.552Z,98037.42
2023-01-21T07:06:25.618Z,98040.64
2023-01-21T07:08:57.970Z,98039.49
2023-01-21T07:11:30.413Z,98040.88
2023-01-21T07:14:02.804Z,98045.20
2023-01-21T07:16:35.468Z,98048.09
2023-01-21T07:19:08.107Z,98047.80
2023-01-21T07:21:42.063Z,98048.06
2023-01-21T07:24:15.291Z,98048.94
2023-01-21T07:26:48.582Z,98048.54
2023-01-21T07:29:23.360Z,98052.54
2023-01-21T07:31:55.836Z,98055.11
2023-01-21T07:34:28.166Z,98056.84
2023-01-21T07:37:00.453Z,98054.09
2023-01-21T07:39:33.121Z,98052.08
2023-01-21T07:42:09.754Z,98057.70
2023-01-21T07:44:42.615Z,98056.40
2023-01-21T07:47:15.093Z,98057.75
2023-01-21T07:49:50.194Z,98060.06
2023-01-21T07:52:24.433Z,98063.38
2023-01-21T07:54:56.988Z,98065.79
2023-01-21T07:57:29.918Z,98068.84
2023-01-21T08:00:05.086Z,98071.65
2023-01-21T08:02:45.453Z,98070.73
2023-01-21T08:05:18.796Z,98070.17
2023-01-21T08:07:51.733Z,98072.12
2023-01-21T08:10:24.036Z,98073.14
2023-01-21T08:12:56.420Z,98072.38
2023-01-21T08:15:29.234Z,98073.98
2023-01-21T08:18:01.576Z,98076.06
2023-01-21T08:20:34.533Z,98074.32
2023-01-21T08:23:08.512Z,98076.04
2023-01-21T08:25:41.808Z,98078.77
2023-01-21T08:28:16.426Z,98082.83
2023-01-21T08:30:49.335Z,98083.98
2023-01-21T08:33:21.884Z,98084.30
2023-01-21T08:35:54.581Z,98085.08
2023-01-21T08:38:26.927Z,98083.52
2023-01-21T08:41:00.575Z,98081.78
2023-01-21T08:43:33.349Z,98080.34
2023-01-21T08:46:06.272Z,98078.80
2023-01-21T08:48:40.188Z,98075.16
2023-01-21T08:51:14.393Z,98081.30
2023-01-21T08:53:49.432Z,98083.84
2023-01-21T08:56:21.974Z,98087.41
2023-01-21T08:59:02.513Z,98089.57
2023-01-21T09:01:36.287Z,98094.38
2023-01-21T09:04:08.747Z,98093.52
2023-01-21T09:06:41.410Z,98090.90
2023-01-21T09:09:14.378Z,98090.59
2023-01-21T09:11:46.950Z,98088.33
2023-01-21T09:14:19.756Z,98090.94
2023-01-21T09:16:52.323Z,98088.13
2023-01-21T09:19:25.133Z,98090.66
2023-01-21T09:21:59.208Z,98092.25
2023-01-21T09:24:31.706Z,98095.05
2023-01-21T09:27:07.042Z,98097.22
2023-01-21T09:29:39.722Z,98097.16
2023-01-21T09:32:12.447Z,98097.10
2023-01-21T09:34:44.787Z,98094.15
2023-01-21T09:37:20.090Z,98093.20
2023-01-21T09:39:52.414Z,98093.70
2023-01-21T09:42:29.300Z,98097.13
2023-01-21T09:45:02.897Z,98102.84
2023-01-21T09:47:39.350Z,98109.96
2023-01-21T09:50:16.700Z,98111.82
2023-01-21T09:52:52.171Z,98110.62
2023-01-21T09:55:29.041Z,98113.86
2023-01-21T09:58:21.281Z,98115.39
2023-01-21T10:00:59.020Z,98119.13
2023-01-21T10:03:39.454Z,98120.86
2023-01-21T10:06:27.889Z,98120.57
2023-01-21T10:09:15.208Z,98119.60
2023-01-21T10:11:58.478Z,98118.86
2023-01-21T10:14:51.901Z,98118.95
2023-01-21T10:17:38.274Z,98125.38
2023-01-21T10:20:23.257Z,98127.36
2023-01-21T10:23:01.835Z,98126.00
2023-01-21T10:25:37.641Z,98126.10
2023-01-21T10:28:17.938Z,98129.15
2023-01-21T10:30:53.505Z,98127.61
2023-01-21T10:33:28.309Z,98126.71
2023-01-21T10:36:29.611Z,98129.98
2023-01-21T10:39:09.971Z,98128.33
2023-01-21T10:41:56.120Z,98129.83
2023-01-21T10:44:35.816Z,98130.41
2023-01-21T10:47:18.590Z,98125.05
2023-01-21T10:50:03.663Z,98120.56
2023-01-21T10:52:45.443Z,98111.91
2023-01-21T10:55:29.971Z,98111.03
2023-01-21T10:58:11.394Z,98111.36
2023-01-21T11:00:47.442Z,98114.40
2023-01-21T11:03:31.050Z,98111.07
2023-01-21T11:06:07.013Z,98111.89
2023-01-21T11:08:41.220Z,98111.80
2023-01-21T11:11:21.984Z,98110.27
2023-01-21T11:13:54.355Z,98110.70
2023-01-21T11:16:38.381Z,98109.77
2023-01-21T11:19:13.132Z,98108.77
2023-01-21T11:22:01.314Z,98104.69
2023-01-21T11:24:43.151Z,98106.66
2023-01-21T11:27:32.264Z,98101.20
2023-01-21T11:30:20.833Z,98103.65
2023-01-21T11:33:14.467Z,98101.18
2023-01-21T11:35:47.151Z,98106.18
2023-01-21T11:38:37.395Z,98105.73
2023-01-21T11:41:19.221Z,98108.92
2023-01-21T11:43:54.071Z,98110.54
2023-01-21T11:46:36.487Z,98108.48
2023-01-21T11:49:30.022Z,98109.46
2023-01-21T11:52:20.890Z,98105.23
2023-01-21T11:54:53.562Z,98104.83
2023-01-21T11:57:31.961Z,98100.05
2023-01-21T12:00:18.158Z,98099.59
2023-01-21T12:02:54.662Z,98096.94
2023-01-21T12:05:33.461Z,98096.17
2023-01-21T12:08:08.346Z,98097.38
2023-01-21T12:10:47.350Z,98103.27
2023-01-21T12:13:23.046Z,98105.89
2023-01-21T12:16:28.629Z,98111.11
2023-01-21T12:19:34.680Z,98109.88
2023-01-21T12:22:37.319Z,98112.19
2023-01-21T12:25:24.253Z,98116.91
2023-01-21T12:28:11.717Z,98117.95
2023-01-21T12:30:55.090Z,98121.27
2023-01-21T12:33:46.098Z,98119.23
2023-01-21T12:36:28.257Z,98117.77
2023-01-21T12:39:14.605Z,98121.57
2023-01-21T12:41:51.925Z,98126.30
2023-01-21T12:44:33.862Z,98129.34
2023-01-21T12:47:12.233Z,98135.59
2023-01-21T12:50:01.367Z,98127.77
2023-01-21T12:52:40.065Z,98124.71
2023-01-21T12:55:19.884Z,98130.48
2023-01-21T12:57:59.267Z,98134.34
2023-01-21T13:00:38.263Z,98132.23
2023-01-21T13:03:28.276Z,98136.13
2023-01-21T13:06:04.513Z,98137.71
2023-01-21T13:08:57.936Z,98138.70
2023-01-21T13:11:36.126Z,98140.27
2023-01-21T13:14:29.614Z,98141.05
2023-01-21T13:17:07.842Z,98149.63
2023-01-21T13:19:42.594Z,98155.30
2023-01-21T13:22:28.870Z,98158.85
2023-01-21T13:25:14.145Z,98164.30
2023-01-21T13:27:53.527Z,98166.38
2023-01-21T13:30:37.443Z,98168.67
2023-01-21T13:33:24.996Z,98174.11
2023-01-21T13:36:10.843Z,98177.16
2023-01-21T13:38:51.441Z,98186.30
2023-01-21T13:41:32.807Z,98190.10
2023-01-21T13:44:29.346Z,98202.09
2023-01-21T13:47:19.157Z,98208.95
2023-01-21T13:50:09.368Z,98215.38
2023-01-21T13:52:52.586Z,98222.52
2023-01-21T13:55:39.593Z,98229.96
2023-01-21T13:58:14.429Z,98236.66
2023-01-21T14:00:54.690Z,98237.39
2023-01-21T14:03:35.545Z,98240.53
2023-01-21T14:06:12.855Z,98243.75
2023-01-21T14:08:49.473Z,98253.55
2023-01-21T14:11:25.849Z,98258.52
2023-01-21T14:14:21.168Z,98256.55
2023-01-21T14:17:29.298Z,98253.78
2023-01-21T14:20:40.802Z,98258.34
2023-01-21T14:23:42.536Z,98259.76
2023-01-21T14:26:29.245Z,98262.59
2023-01-21T14:29:09.952Z,98265.79
2023-01-21T14:31:47.408Z,98269.38
2023-01-21T14:34:26.970Z,98273.14
2023-01-21T14:37:07.353Z,98268.86
2023-01-21T14:39:52.620Z,98268.83
2023-01-21T14:42:43.879Z,98271.96
2023-01-21T14:45:17.764Z,98277.69
2023-01-21T14:47:53.598Z,98279.11
2023-01-21T14:50:52.454Z,98284.17
2023-01-21T14:53:27.880Z,98287.07
2023-01-21T14:56:16.689Z,98294.20
2023-01-21T14:58:52.001Z,98297.46
2023-01-21T15:01:38.514Z,98302.52
2023-01-21T15:04:25.797Z,98305.22
2023-01-21T15:07:00.564Z,98306.45
2023-01-21T15:09:39.695Z,98309.05
2023-01-21T15:12:21.077Z,98313.73
2023-01-21T15:14:57.034Z,98314.10
2023-01-21T15:18:03.451Z,98317.34
2023-01-21T15:20:50.514Z,98321.77
2023-01-21T15:23:38.916Z,98330.56
2023-01-21T15:26:42.460Z,98336.46
2023-01-21T15:29:35.815Z,98339.09
2023-01-21T15:32:27.574Z,98341.80
2023-01-21T15:35:02.781Z,98347.92
2023-01-21T15:37:40.397Z,98352.20
2023-01-21T15:40:20.849Z,98355.63
2023-01-21T15:43:01.906Z,98359.21
2023-01-21T15:45:44.217Z,98355.84
2023-01-21T15:48:49.640Z,98354.50
2023-01-21T15:51:34.218Z,98362.23
2023-01-21T15:54:21.716Z,98366.59
2023-01-21T15:57:09.165Z,98372.36
2023-01-21T16:00:04.275Z,98378.77
2023-01-21T16:02:52.239Z,98385.35
2023-01-21T16:05:32.835Z,98391.67
2023-01-21T16:08:18.990Z,98394.83
2023-01-21T16:11:03.482Z,98397.98
2023-01-21T16:13:48.417Z,98401.58
2023-01-21T16:16:34.485Z,98406.86
2023-01-21T16:19:13.646Z,98417.85
2023-01-21T16:21:50.506Z,98426.10
2023-01-21T16:24:27.466Z,98433.96
2023-01-21T16:27:19.150Z,98436.29
2023-01-21T16:29:57.850Z,98442.70
2023-01-21T16:32:32.506Z,98449.22
2023-01-21T16:35:05.775Z,98453.90
2023-01-21T16:37:38.377Z,98457.41
2023-01-21T16:40:30.488Z,98459.16
2023-01-21T16:43:22.778Z,98457.05
2023-01-21T16:45:57.116Z,98460.83
2023-01-21T16:48:32.991Z,98462.69
2023-01-21T16:51:05.789Z,98465.93
2023-01-21T16:53:38.210Z,98465.02
2023-01-21T16:56:27.312Z,98468.00
2023-01-21T16:58:59.592Z,98472.24
2023-01-21T17:01:32.879Z,98472.85
2023-01-21T17:04:05.775Z,98474.23
2023-01-21T17:06:38.419Z,98474.41
2023-01-21T17:09:26.261Z,98479.47
2023-01-21T17:12:02.447Z,98483.50
2023-01-21T17:14:36.419Z,98490.52
2023-01-21T17:17:10.475Z,98495.20
2023-01-21T17:19:45.361Z,98499.37
2023-01-21T17:22:22.027Z,98498.35
2023-01-21T17:25:03.856Z,98501.95
2023-01-21T17:27:39.025Z,98506.33
2023-01-21T17:30:32.187Z,98516.27
2023-01-21T17:33:07.374Z,98518.83
2023-01-21T17:35:59.704Z,98524.69
2023-01-21T17:38:32.192Z,98530.77
2023-01-21T17:41:08.330Z,98530.73
2023-01-21T17:43:49.047Z,98529.31
2023-01-21T17:46:23.160Z,98533.36
2023-01-21T17:49:02.002Z,98534.17
2023-01-21T17:51:35.056Z,98534.61
2023-01-21T17:54:09.518Z,98542.83
2023-01-21T17:56:49.609Z,98545.87
2023-01-21T17:59:38.018Z,98553.29
2023-01-21T18:02:15.175Z,98557.01
2023-01-21T18:04:47.526Z,98564.70
2023-01-21T18:07:24.859Z,98564.63
2023-01-21T18:10:00.502Z,98568.19
2023-01-21T18:12:33.033Z,98574.11
2023-01-21T18:15:05.605Z,98579.93
2023-01-21T18:17:46.665Z,98581.64
2023-01-21T18:20:21.601Z,98586.39
2023-01-21T18:22:57.084Z,98593.50
2023-01-21T18:25:30.140Z,98602.48
2023-01-21T18:28:02.871Z,98611.30
2023-01-21T18:30:35.500Z,98616.30
2023-01-21T18:33:07.968Z,98616.77
2023-01-21T18:35:41.350Z,98617.05
2023-01-21T18:38:16.210Z,98622.91
2023-01-21T18:40:49.246Z,98625.35
2023-01-21T18:43:21.745Z,98628.83
2023-01-21T18:45:54.760Z,98637.34
2023-01-21T18:48:32.171Z,98641.52
2023-01-21T18:51:04.788Z,98644.65
2023-01-21T18:53:37.151Z,98649.89
2023-01-21T18:56:13.910Z,98654.85
2023-01-21T18:58:46.362Z,98656.29
2023-01-21T19:01:23.520Z,98655.36
2023-01-21T19:03:58.320Z,98661.60
2023-01-21T19:06:30.605Z,98669.64
2023-01-21T19:09:02.966Z,98673.02
2023-01-21T19:11:35.393Z,98677.23
2023-01-21T19:14:07.757Z,98681.94
2023-01-21T19:16:41.009Z,98685.64
2023-01-21T19:19:16.022Z,98682.61
2023-01-21T19:21:48.655Z,98677.29
2023-01-21T19:24:21.922Z,98681.55
2023-01-21T19:26:54.685Z,98683.77
2023-01-21T19:29:35.417Z,98687.29
2023-01-21T19:32:14.479Z,98691.27
2023-01-21T19:34:47.241Z,98695.82
2023-01-21T19:37:23.667Z,98697.36
2023-01-21T19:39:56.056Z,98699.48
2023-01-21T19:42:28.327Z,98705.33
2023-01-21T19:45:00.631Z,98701.29
2023-01-21T19:47:38.265Z,98697.04
2023-01-21T19:50:17.826Z,98703.88
2023-01-21T19:52:52.719Z,98708.38
2023-01-21T19:55:26.645Z,98706.55
2023-01-21T19:58:02.102Z,98711.64
2023-01-21T20:00:36.457Z,98713.67
2023-01-21T20:03:10.406Z,98716.35
2023-01-21T20:05:43.371Z,98726.39
2023-01-21T20:08:20.171Z,98734.89
2023-01-21T20:10:53.043Z,98732.88
2023-01-21T20:13:26.349Z,98735.92
2023-01-21T20:16:02.700Z,98737.63
2023-01-21T20:18:35.251Z,98732.54
2023-01-21T20:21:07.997Z,98735.83
2023-01-21T20:23:40.344Z,98742.12
2023-01-21T20:26:18.287Z,98754.08
2023-01-21T20:28:54.484Z,98750.04
2023-01-21T20:31:27.405Z,98761.11
2023-01-21T20:33:59.960Z,98762.68
2023-01-21T20:36:32.577Z,98765.75
2023-01-21T20:39:05.204Z,98767.44
2023-01-21T20:41:41.138Z,98771.25
2023-01-21T20:44:13.491Z,98774.63
2023-01-21T20:46:45.900Z,98775.48
2023-01-21T20:49:18.533Z,98778.59
2023-01-21T20:51:50.984Z,98779.38
2023-01-21T20:54:24.869Z,98788.56
2023-01-21T20:56:57.130Z,98797.02
2023-01-21T20:59:29.521Z,98791.87
2023-01-21T21:02:01.962Z,98794.04
2023-01-21T21:04:34.446Z,98791.35
2023-01-21T21:07:06.716Z,98796.77
2023-01-21T21:09:39.922Z,98805.13
2023-01-21T21:12:12.550Z,98807.73
2023-01-21T21:14:44.946Z,98812.02
2023-01-21T21:17:17.283Z,98813.25
2023-01-21T21:19:50.072Z,98811.09
2023-01-21T21:22:22.416Z,98809.98
2023-01-21T21:24:55.015Z,98822.27
2023-01-21T21:27:27.431Z,98825.92
2023-01-21T21:29:59.731Z,98820.34
2023-01-21T21:32:32.296Z,98820.52
2023-01-21T21:35:04.598Z,98819.25
2023-01-21T21:37:37.047Z,98812.66
2023-01-21T21:40:12.082Z,98813.95
2023-01-21T21:43:02.156Z,98825.02
2023-01-21T21:45:34.778Z,98834.43
2023-01-21T21:48:32.340Z,98840.64
2023-01-21T21:51:04.968Z,98833.34
2023-01-21T21:53:37.366Z,98832.66
2023-01-21T21:56:18.420Z,98828.68
2023-01-21T22:02:06.630Z,98843.29
2023-01-21T22:04:42.774Z,98846.63
2023-01-21T22:07:15.264Z,98852.21
2023-01-21T22:09:47.594Z,98857.59
2023-01-21T22:12:19.889Z,98861.59
2023-01-21T22:14:52.408Z,98864.90
2023-01-21T22:17:24.975Z,98862.76
2023-01-21T22:19:57.283Z,98864.17
2023-01-21T22:22:29.687Z,98867.83
2023-01-21T22:25:04.200Z,98865.25
2023-01-21T22:27:36.599Z,98872.38
2023-01-21T22:30:11.007Z,98870.25
2023-01-21T22:32:45.845Z,98869.48
2023-01-21T22:35:18.452Z,98873.96
2023-01-21T22:37:54.090Z,98876.79
2023-01-21T22:40:26.420Z,98878.06
2023-01-21T22:42:58.910Z,98876.24
2023-01-21T22:45:31.301Z,98884.02
2023-01-21T22:48:03.902Z,98882.61
2023-01-21T22:50:40.964Z,98883.29
2023-01-21T22:53:13.407Z,98883.67
2023-01-21T22:55:45.892Z,98888.81
2023-01-21T22:58:19.823Z,98888.73
2023-01-21T23:00:53.414Z,98892.35
2023-01-21T23:03:27.087Z,98892.51
2023-01-21T23:06:05.630Z,98895.61
2023-01-21T23:08:39.051Z,98897.39
2023-01-21T23:11:15.855Z,98896.32
2023-01-21T23:13:49.291Z,98898.42
2023-01-21T23:16:22.871Z,98900.52
2023-01-21T23:18:55.188Z,98895.48
2023-01-21T23:21:29.993Z,98899.70
2023-01-21T23:24:02.405Z,98901.17
2023-01-21T23:26:34.852Z,98902.64
2023-01-21T23:29:07.218Z,98904.27
2023-01-21T23:31:42.263Z,98904.46
2023-01-21T23:34:16.789Z,98906.50
2023-01-21T23:36:50.627Z,98906.15
2023-01-21T23:39:22.989Z,98909.23
2023-01-21T23:41:56.062Z,98914.98
2023-01-21T23:44:28.630Z,98918.87
2023-01-21T23:47:01.131Z,98918.93
2023-01-21T23:49:33.623Z,98917.55
2023-01-21T23:52:08.575Z,98912.32
2023-01-21T23:54:41.070Z,98904.19
2023-01-21T23:57:21.562Z,98905.45
2023-01-21T23:59:52.333Z,98910.90
